Capitol Logistics 614


SKRG
José María Córdova International Airport
Medellin, CO
KMIA
Miami International Airport
Miami, US

Activity Log

Date Flight Route Aircraft Duration
12/01/2019 CPX614 BUTAL UQ105 KILER UG430 UCA UA301 URSUS FLIPR5 B763 3h 20m
12/13/2018 CPX722 BUTA2A BUTAL UQ105 KILER UG430 UCA UA301 URSUS FOWEE9 B752 3h 12m
11/30/2018 CPX714 BUTAL UQ105 KILER UG430 UCA UA301 URSUS FLIPR5 B752 3h 00m
11/04/2018 CPX712 BUTAL UQ105 KILER UG430 UCA UA301 URSUS FLIPR5 B752 3h 23m

Route Details

Aircraft Information
Primary: Boeing 767-300BDSF
Backup: Not Available
Route Data
Distance: 1271nm
Sched. Duration: 3h 29m
Avg. Duration: 3h 13m (-16m)
Times Flown: 4
Recm'd Route: BUTAL UQ105 KILER UG430 UCA UA301 URSUS FLIPR5
Planned Altitude: 34,000ft
Origin Wx: SKRG 061200Z 00000KT 9999 BKN008 SCT080 15/15 A3032 BECMG FM1320 SCT012
Dest. Wx: KMIA 061153Z 04004KT 10SM SCT026 BKN037 BKN055 24/22 A3000 RMK AO2 SLP158 60000 T02390217 10250 20233 53014
Notes:

Financial History
Total Freight: 304,621lbs
Average Load: 76,155lbs/flt
Fuel Used: 108,636lbs
Avg. Fuel Used: 27,159lbs/flt
Fuel Expense: $72,925
Avg. Fuel Expense: $18,231
Avg. Fuel Cost: $0.69/lbs
Total Gross Income: $734,733
Pilot Pay: $706
Total Expenses: $67,479
Total Revenue: $591,175
Average Revenue: $183,683.13